sensor_id;sensor_type;location;lat;lon;timestamp;P1;durP1;ratioP1;P2;durP2;ratioP2
10977;SDS011;5542;48.272;10.794;2023-11-21T00:01:59;1.42;;;0.93;;
10977;SDS011;5542;48.272;10.794;2023-11-21T00:04:25;2.15;;;1.05;;
10977;SDS011;5542;48.272;10.794;2023-11-21T00:06:52;3.42;;;1.30;;
10977;SDS011;5542;48.272;10.794;2023-11-21T00:09:20;2.70;;;1.00;;
10977;SDS011;5542;48.272;10.794;2023-11-21T00:11:46;1.40;;;0.82;;
10977;SDS011;5542;48.272;10.794;2023-11-21T00:14:13;2.00;;;1.08;;
10977;SDS011;5542;48.272;10.794;2023-11-21T00:16:42;1.75;;;1.00;;
10977;SDS011;5542;48.272;10.794;2023-11-21T00:19:09;1.83;;;0.70;;
10977;SDS011;5542;48.272;10.794;2023-11-21T00:21:35;3.08;;;1.10;;
10977;SDS011;5542;48.272;10.794;2023-11-21T00:24:02;1.90;;;1.00;;
10977;SDS011;5542;48.272;10.794;2023-11-21T00:26:29;1.98;;;0.85;;
10977;SDS011;5542;48.272;10.794;2023-11-21T00:28:56;1.73;;;0.98;;
10977;SDS011;5542;48.272;10.794;2023-11-21T00:31:22;1.50;;;1.10;;
10977;SDS011;5542;48.272;10.794;2023-11-21T00:33:51;1.53;;;0.73;;
10977;SDS011;5542;48.272;10.794;2023-11-21T00:36:17;1.52;;;1.02;;
10977;SDS011;5542;48.272;10.794;2023-11-21T00:38:44;1.98;;;1.08;;
10977;SDS011;5542;48.272;10.794;2023-11-21T00:41:10;2.20;;;0.90;;
10977;SDS011;5542;48.272;10.794;2023-11-21T00:43:37;1.42;;;1.00;;
10977;SDS011;5542;48.272;10.794;2023-11-21T00:46:04;2.75;;;1.13;;
10977;SDS011;5542;48.272;10.794;2023-11-21T00:48:32;1.80;;;0.80;;
10977;SDS011;5542;48.272;10.794;2023-11-21T00:51:00;1.42;;;1.08;;
10977;SDS011;5542;48.272;10.794;2023-11-21T00:53:26;3.13;;;0.93;;
10977;SDS011;5542;48.272;10.794;2023-11-21T00:55:53;1.38;;;1.05;;
10977;SDS011;5542;48.272;10.794;2023-11-21T00:58:22;2.20;;;1.05;;
10977;SDS011;5542;48.272;10.794;2023-11-21T01:00:48;1.70;;;1.02;;
10977;SDS011;5542;48.272;10.794;2023-11-21T01:03:15;1.73;;;0.93;;
10977;SDS011;5542;48.272;10.794;2023-11-21T01:05:41;2.72;;;1.08;;
10977;SDS011;5542;48.272;10.794;2023-11-21T01:08:09;1.13;;;0.93;;
10977;SDS011;5542;48.272;10.794;2023-11-21T01:10:36;2.33;;;1.07;;
10977;SDS011;5542;48.272;10.794;2023-11-21T01:13:03;2.25;;;1.17;;
10977;SDS011;5542;48.272;10.794;2023-11-21T01:15:30;2.50;;;1.02;;
10977;SDS011;5542;48.272;10.794;2023-11-21T01:17:57;3.60;;;1.08;;
10977;SDS011;5542;48.272;10.794;2023-11-21T01:20:23;2.28;;;1.13;;
10977;SDS011;5542;48.272;10.794;2023-11-21T01:22:50;1.00;;;0.90;;
10977;SDS011;5542;48.272;10.794;2023-11-21T01:25:18;2.33;;;1.10;;
10977;SDS011;5542;48.272;10.794;2023-11-21T01:27:46;1.20;;;0.90;;
10977;SDS011;5542;48.272;10.794;2023-11-21T01:30:12;2.97;;;1.02;;
10977;SDS011;5542;48.272;10.794;2023-11-21T01:32:39;1.27;;;0.75;;
10977;SDS011;5542;48.272;10.794;2023-11-21T01:35:06;1.73;;;0.60;;
10977;SDS011;5542;48.272;10.794;2023-11-21T01:37:34;4.35;;;1.30;;
10977;SDS011;5542;48.272;10.794;2023-11-21T01:40:01;1.98;;;0.82;;
10977;SDS011;5542;48.272;10.794;2023-11-21T01:42:31;3.00;;;0.90;;
10977;SDS011;5542;48.272;10.794;2023-11-21T01:44:59;1.00;;;0.60;;
10977;SDS011;5542;48.272;10.794;2023-11-21T01:47:30;1.63;;;1.10;;
10977;SDS011;5542;48.272;10.794;2023-11-21T01:49:56;2.37;;;1.07;;
10977;SDS011;5542;48.272;10.794;2023-11-21T01:52:24;2.97;;;1.40;;
10977;SDS011;5542;48.272;10.794;2023-11-21T01:54:50;1.75;;;1.02;;
10977;SDS011;5542;48.272;10.794;2023-11-21T01:57:18;1.25;;;0.82;;
10977;SDS011;5542;48.272;10.794;2023-11-21T01:59:47;1.27;;;0.80;;
10977;SDS011;5542;48.272;10.794;2023-11-21T02:02:15;2.20;;;0.77;;
10977;SDS011;5542;48.272;10.794;2023-11-21T02:04:42;1.15;;;0.70;;
10977;SDS011;5542;48.272;10.794;2023-11-21T02:07:09;1.40;;;0.75;;
10977;SDS011;5542;48.272;10.794;2023-11-21T02:09:35;1.55;;;0.70;;
10977;SDS011;5542;48.272;10.794;2023-11-21T02:12:03;2.38;;;0.98;;
10977;SDS011;5542;48.272;10.794;2023-11-21T02:14:30;0.70;;;0.70;;
10977;SDS011;5542;48.272;10.794;2023-11-21T02:16:58;1.40;;;0.90;;
10977;SDS011;5542;48.272;10.794;2023-11-21T02:19:26;0.80;;;0.80;;
10977;SDS011;5542;48.272;10.794;2023-11-21T02:21:54;1.83;;;0.90;;
10977;SDS011;5542;48.272;10.794;2023-11-21T02:24:27;2.17;;;1.08;;
10977;SDS011;5542;48.272;10.794;2023-11-21T02:26:53;1.88;;;1.00;;
10977;SDS011;5542;48.272;10.794;2023-11-21T02:29:20;2.20;;;1.10;;
10977;SDS011;5542;48.272;10.794;2023-11-21T02:31:47;1.07;;;0.83;;
10977;SDS011;5542;48.272;10.794;2023-11-21T02:34:14;2.42;;;1.00;;
10977;SDS011;5542;48.272;10.794;2023-11-21T02:36:41;1.60;;;0.98;;
10977;SDS011;5542;48.272;10.794;2023-11-21T02:39:08;2.20;;;1.17;;
10977;SDS011;5542;48.272;10.794;2023-11-21T02:41:36;4.32;;;1.35;;
10977;SDS011;5542;48.272;10.794;2023-11-21T02:44:04;1.02;;;0.93;;
10977;SDS011;5542;48.272;10.794;2023-11-21T02:46:31;1.80;;;0.90;;
10977;SDS011;5542;48.272;10.794;2023-11-21T02:48:59;2.20;;;0.98;;
10977;SDS011;5542;48.272;10.794;2023-11-21T02:51:25;1.65;;;1.10;;
10977;SDS011;5542;48.272;10.794;2023-11-21T02:53:52;2.92;;;1.05;;
10977;SDS011;5542;48.272;10.794;2023-11-21T02:56:18;2.15;;;1.27;;
10977;SDS011;5542;48.272;10.794;2023-11-21T02:58:46;2.08;;;1.27;;
10977;SDS011;5542;48.272;10.794;2023-11-21T03:01:13;2.13;;;1.00;;
10977;SDS011;5542;48.272;10.794;2023-11-21T03:03:39;1.45;;;1.08;;
10977;SDS011;5542;48.272;10.794;2023-11-21T03:06:07;1.85;;;0.93;;
10977;SDS011;5542;48.272;10.794;2023-11-21T03:08:33;2.00;;;1.35;;
10977;SDS011;5542;48.272;10.794;2023-11-21T03:11:00;1.60;;;1.13;;
10977;SDS011;5542;48.272;10.794;2023-11-21T03:13:28;1.20;;;1.08;;
10977;SDS011;5542;48.272;10.794;2023-11-21T03:15:55;2.47;;;1.30;;
10977;SDS011;5542;48.272;10.794;2023-11-21T03:18:22;0.80;;;0.77;;
10977;SDS011;5542;48.272;10.794;2023-11-21T03:20:48;1.30;;;1.20;;
10977;SDS011;5542;48.272;10.794;2023-11-21T03:23:15;1.70;;;0.93;;
10977;SDS011;5542;48.272;10.794;2023-11-21T03:25:41;1.20;;;1.08;;
10977;SDS011;5542;48.272;10.794;2023-11-21T03:28:08;1.33;;;0.80;;
10977;SDS011;5542;48.272;10.794;2023-11-21T03:30:35;0.53;;;0.53;;
10977;SDS011;5542;48.272;10.794;2023-11-21T03:33:02;2.38;;;0.93;;
10977;SDS011;5542;48.272;10.794;2023-11-21T03:35:29;0.80;;;0.70;;
10977;SDS011;5542;48.272;10.794;2023-11-21T03:37:55;1.00;;;0.57;;
10977;SDS011;5542;48.272;10.794;2023-11-21T03:40:22;2.42;;;0.55;;
10977;SDS011;5542;48.272;10.794;2023-11-21T03:42:48;1.00;;;0.52;;
10977;SDS011;5542;48.272;10.794;2023-11-21T03:45:15;1.23;;;0.98;;
10977;SDS011;5542;48.272;10.794;2023-11-21T03:47:42;3.17;;;1.08;;
10977;SDS011;5542;48.272;10.794;2023-11-21T03:50:10;0.85;;;0.82;;
10977;SDS011;5542;48.272;10.794;2023-11-21T03:52:37;1.35;;;0.90;;
10977;SDS011;5542;48.272;10.794;2023-11-21T03:55:03;1.48;;;1.00;;
10977;SDS011;5542;48.272;10.794;2023-11-21T03:57:30;1.27;;;0.63;;
10977;SDS011;5542;48.272;10.794;2023-11-21T03:59:57;2.17;;;0.83;;
10977;SDS011;5542;48.272;10.794;2023-11-21T04:02:23;1.80;;;0.75;;
10977;SDS011;5542;48.272;10.794;2023-11-21T04:04:52;0.88;;;0.75;;
10977;SDS011;5542;48.272;10.794;2023-11-21T04:07:19;0.50;;;0.50;;
10977;SDS011;5542;48.272;10.794;2023-11-21T04:09:47;2.00;;;1.00;;
10977;SDS011;5542;48.272;10.794;2023-11-21T04:12:13;0.60;;;0.60;;
10977;SDS011;5542;48.272;10.794;2023-11-21T04:14:40;1.80;;;0.77;;
10977;SDS011;5542;48.272;10.794;2023-11-21T04:17:06;1.40;;;0.80;;
10977;SDS011;5542;48.272;10.794;2023-11-21T04:19:36;1.33;;;0.60;;
10977;SDS011;5542;48.272;10.794;2023-11-21T04:22:12;0.95;;;0.85;;
10977;SDS011;5542;48.272;10.794;2023-11-21T04:24:40;2.33;;;0.95;;
10977;SDS011;5542;48.272;10.794;2023-11-21T04:27:06;1.13;;;0.88;;
10977;SDS011;5542;48.272;10.794;2023-11-21T04:29:33;1.67;;;1.10;;
10977;SDS011;5542;48.272;10.794;2023-11-21T04:32:00;1.63;;;1.15;;
10977;SDS011;5542;48.272;10.794;2023-11-21T04:34:27;1.00;;;1.00;;
10977;SDS011;5542;48.272;10.794;2023-11-21T04:36:55;1.10;;;0.70;;
10977;SDS011;5542;48.272;10.794;2023-11-21T04:39:22;1.30;;;0.98;;
10977;SDS011;5542;48.272;10.794;2023-11-21T04:41:50;1.88;;;1.00;;
10977;SDS011;5542;48.272;10.794;2023-11-21T04:44:16;2.10;;;0.77;;
10977;SDS011;5542;48.272;10.794;2023-11-21T04:46:43;2.33;;;0.80;;
10977;SDS011;5542;48.272;10.794;2023-11-21T04:49:09;1.30;;;0.80;;
10977;SDS011;5542;48.272;10.794;2023-11-21T04:51:37;0.90;;;0.80;;
10977;SDS011;5542;48.272;10.794;2023-11-21T04:54:03;0.90;;;0.70;;
10977;SDS011;5542;48.272;10.794;2023-11-21T04:56:30;0.70;;;0.60;;
10977;SDS011;5542;48.272;10.794;2023-11-21T04:58:58;0.98;;;0.60;;
10977;SDS011;5542;48.272;10.794;2023-11-21T05:01:25;0.70;;;0.50;;
10977;SDS011;5542;48.272;10.794;2023-11-21T05:03:51;0.82;;;0.80;;
10977;SDS011;5542;48.272;10.794;2023-11-21T05:06:18;0.82;;;0.63;;
10977;SDS011;5542;48.272;10.794;2023-11-21T05:08:45;0.70;;;0.60;;
10977;SDS011;5542;48.272;10.794;2023-11-21T05:11:11;0.70;;;0.70;;
10977;SDS011;5542;48.272;10.794;2023-11-21T05:13:38;1.03;;;0.67;;
10977;SDS011;5542;48.272;10.794;2023-11-21T05:16:06;1.85;;;1.00;;
10977;SDS011;5542;48.272;10.794;2023-11-21T05:18:33;0.55;;;0.55;;
10977;SDS011;5542;48.272;10.794;2023-11-21T05:20:59;1.50;;;0.93;;
10977;SDS011;5542;48.272;10.794;2023-11-21T05:23:26;1.05;;;0.95;;
10977;SDS011;5542;48.272;10.794;2023-11-21T05:25:52;1.02;;;0.93;;
10977;SDS011;5542;48.272;10.794;2023-11-21T05:28:19;1.40;;;1.30;;
10977;SDS011;5542;48.272;10.794;2023-11-21T05:30:45;1.13;;;0.98;;
10977;SDS011;5542;48.272;10.794;2023-11-21T05:33:13;1.00;;;0.60;;
10977;SDS011;5542;48.272;10.794;2023-11-21T05:35:40;1.50;;;0.45;;
10977;SDS011;5542;48.272;10.794;2023-11-21T05:38:06;0.75;;;0.70;;
10977;SDS011;5542;48.272;10.794;2023-11-21T05:40:33;0.95;;;0.73;;
10977;SDS011;5542;48.272;10.794;2023-11-21T05:42:59;0.68;;;0.68;;
10977;SDS011;5542;48.272;10.794;2023-11-21T05:45:26;0.55;;;0.55;;
10977;SDS011;5542;48.272;10.794;2023-11-21T05:47:54;1.90;;;0.70;;
10977;SDS011;5542;48.272;10.794;2023-11-21T05:50:22;0.70;;;0.60;;
10977;SDS011;5542;48.272;10.794;2023-11-21T05:52:48;0.80;;;0.70;;
10977;SDS011;5542;48.272;10.794;2023-11-21T05:55:15;0.50;;;0.40;;
10977;SDS011;5542;48.272;10.794;2023-11-21T05:57:42;0.60;;;0.43;;
10977;SDS011;5542;48.272;10.794;2023-11-21T06:00:10;0.68;;;0.60;;
10977;SDS011;5542;48.272;10.794;2023-11-21T06:02:43;1.00;;;0.70;;
10977;SDS011;5542;48.272;10.794;2023-11-21T06:05:10;0.45;;;0.30;;
10977;SDS011;5542;48.272;10.794;2023-11-21T06:07:38;1.90;;;0.80;;
10977;SDS011;5542;48.272;10.794;2023-11-21T06:10:05;2.90;;;2.50;;
10977;SDS011;5542;48.272;10.794;2023-11-21T06:12:34;18.63;;;8.50;;
10977;SDS011;5542;48.272;10.794;2023-11-21T06:15:01;5.60;;;3.13;;
10977;SDS011;5542;48.272;10.794;2023-11-21T06:17:30;6.20;;;3.28;;
10977;SDS011;5542;48.272;10.794;2023-11-21T06:19:56;14.60;;;6.78;;
10977;SDS011;5542;48.272;10.794;2023-11-21T06:22:23;10.48;;;5.53;;
10977;SDS011;5542;48.272;10.794;2023-11-21T06:24:51;27.17;;;12.63;;
10977;SDS011;5542;48.272;10.794;2023-11-21T06:27:17;12.80;;;7.07;;
10977;SDS011;5542;48.272;10.794;2023-11-21T06:29:44;7.28;;;4.47;;
10977;SDS011;5542;48.272;10.794;2023-11-21T06:32:10;13.30;;;6.88;;
10977;SDS011;5542;48.272;10.794;2023-11-21T06:34:37;6.07;;;3.15;;
10977;SDS011;5542;48.272;10.794;2023-11-21T06:37:03;4.95;;;3.17;;
10977;SDS011;5542;48.272;10.794;2023-11-21T06:39:31;2.03;;;1.50;;
10977;SDS011;5542;48.272;10.794;2023-11-21T06:41:58;3.20;;;2.53;;
10977;SDS011;5542;48.272;10.794;2023-11-21T06:44:25;2.30;;;1.45;;
10977;SDS011;5542;48.272;10.794;2023-11-21T06:46:52;1.73;;;1.25;;
10977;SDS011;5542;48.272;10.794;2023-11-21T06:49:19;2.72;;;0.98;;
10977;SDS011;5542;48.272;10.794;2023-11-21T06:51:45;1.17;;;1.08;;
10977;SDS011;5542;48.272;10.794;2023-11-21T06:54:12;0.90;;;0.90;;
10977;SDS011;5542;48.272;10.794;2023-11-21T06:56:39;0.40;;;0.40;;
10977;SDS011;5542;48.272;10.794;2023-11-21T06:59:07;1.63;;;0.80;;
10977;SDS011;5542;48.272;10.794;2023-11-21T07:01:34;0.52;;;0.52;;
10977;SDS011;5542;48.272;10.794;2023-11-21T07:04:04;1.03;;;0.70;;
10977;SDS011;5542;48.272;10.794;2023-11-21T07:06:31;0.90;;;0.52;;
10977;SDS011;5542;48.272;10.794;2023-11-21T07:08:57;1.45;;;0.60;;
10977;SDS011;5542;48.272;10.794;2023-11-21T07:11:24;0.70;;;0.60;;
10977;SDS011;5542;48.272;10.794;2023-11-21T07:13:51;1.30;;;1.02;;
10977;SDS011;5542;48.272;10.794;2023-11-21T07:16:19;0.70;;;0.70;;
10977;SDS011;5542;48.272;10.794;2023-11-21T07:18:45;4.18;;;3.17;;
10977;SDS011;5542;48.272;10.794;2023-11-21T07:21:14;2.17;;;1.92;;
10977;SDS011;5542;48.272;10.794;2023-11-21T07:23:41;1.50;;;1.27;;
10977;SDS011;5542;48.272;10.794;2023-11-21T07:26:07;1.05;;;0.98;;
10977;SDS011;5542;48.272;10.794;2023-11-21T07:28:35;0.95;;;0.70;;
10977;SDS011;5542;48.272;10.794;2023-11-21T07:31:02;1.30;;;0.98;;
10977;SDS011;5542;48.272;10.794;2023-11-21T07:33:30;0.75;;;0.70;;
10977;SDS011;5542;48.272;10.794;2023-11-21T07:35:56;1.65;;;1.08;;
10977;SDS011;5542;48.272;10.794;2023-11-21T07:38:23;1.00;;;0.80;;
10977;SDS011;5542;48.272;10.794;2023-11-21T07:40:49;1.00;;;0.68;;
10977;SDS011;5542;48.272;10.794;2023-11-21T07:43:16;0.70;;;0.70;;
10977;SDS011;5542;48.272;10.794;2023-11-21T07:45:44;1.42;;;0.82;;
10977;SDS011;5542;48.272;10.794;2023-11-21T07:48:11;0.93;;;0.70;;
10977;SDS011;5542;48.272;10.794;2023-11-21T07:50:38;1.98;;;1.52;;
10977;SDS011;5542;48.272;10.794;2023-11-21T07:53:05;3.25;;;2.45;;
10977;SDS011;5542;48.272;10.794;2023-11-21T07:55:31;1.20;;;1.20;;
10977;SDS011;5542;48.272;10.794;2023-11-21T07:57:58;0.80;;;0.80;;
10977;SDS011;5542;48.272;10.794;2023-11-21T08:00:24;0.70;;;0.70;;
10977;SDS011;5542;48.272;10.794;2023-11-21T08:02:55;0.75;;;0.70;;
10977;SDS011;5542;48.272;10.794;2023-11-21T08:05:21;0.97;;;0.87;;
10977;SDS011;5542;48.272;10.794;2023-11-21T08:07:49;0.75;;;0.70;;
10977;SDS011;5542;48.272;10.794;2023-11-21T08:10:15;0.63;;;0.63;;
10977;SDS011;5542;48.272;10.794;2023-11-21T08:12:42;0.85;;;0.80;;
10977;SDS011;5542;48.272;10.794;2023-11-21T08:15:09;0.80;;;0.80;;
10977;SDS011;5542;48.272;10.794;2023-11-21T08:17:36;2.50;;;1.43;;
10977;SDS011;5542;48.272;10.794;2023-11-21T08:20:02;3.28;;;1.65;;
10977;SDS011;5542;48.272;10.794;2023-11-21T08:22:29;1.13;;;0.98;;
10977;SDS011;5542;48.272;10.794;2023-11-21T08:24:58;2.40;;;1.10;;
10977;SDS011;5542;48.272;10.794;2023-11-21T08:27:24;1.05;;;0.80;;
10977;SDS011;5542;48.272;10.794;2023-11-21T08:29:51;1.40;;;1.10;;
10977;SDS011;5542;48.272;10.794;2023-11-21T08:32:18;0.70;;;0.70;;
10977;SDS011;5542;48.272;10.794;2023-11-21T08:34:44;1.30;;;0.80;;
10977;SDS011;5542;48.272;10.794;2023-11-21T08:37:11;1.10;;;1.00;;
10977;SDS011;5542;48.272;10.794;2023-11-21T08:39:40;0.80;;;0.80;;
10977;SDS011;5542;48.272;10.794;2023-11-21T08:42:09;1.00;;;1.00;;
10977;SDS011;5542;48.272;10.794;2023-11-21T08:44:35;1.58;;;1.13;;
10977;SDS011;5542;48.272;10.794;2023-11-21T08:47:03;1.52;;;1.40;;
10977;SDS011;5542;48.272;10.794;2023-11-21T08:49:30;1.42;;;1.20;;
10977;SDS011;5542;48.272;10.794;2023-11-21T08:51:55;1.40;;;1.17;;
10977;SDS011;5542;48.272;10.794;2023-11-21T08:54:24;3.08;;;2.10;;
10977;SDS011;5542;48.272;10.794;2023-11-21T08:56:50;1.13;;;0.90;;
10977;SDS011;5542;48.272;10.794;2023-11-21T08:59:18;2.55;;;2.03;;
10977;SDS011;5542;48.272;10.794;2023-11-21T09:01:45;1.75;;;1.30;;
10977;SDS011;5542;48.272;10.794;2023-11-21T09:04:12;1.30;;;1.20;;
10977;SDS011;5542;48.272;10.794;2023-11-21T09:06:39;0.98;;;0.88;;
10977;SDS011;5542;48.272;10.794;2023-11-21T09:09:05;1.65;;;1.10;;
10977;SDS011;5542;48.272;10.794;2023-11-21T09:11:33;0.88;;;0.88;;
10977;SDS011;5542;48.272;10.794;2023-11-21T09:14:00;1.05;;;0.93;;
10977;SDS011;5542;48.272;10.794;2023-11-21T09:16:29;1.70;;;1.30;;
10977;SDS011;5542;48.272;10.794;2023-11-21T09:18:56;2.72;;;1.30;;
10977;SDS011;5542;48.272;10.794;2023-11-21T09:21:23;1.40;;;1.30;;
10977;SDS011;5542;48.272;10.794;2023-11-21T09:23:50;1.35;;;1.02;;
10977;SDS011;5542;48.272;10.794;2023-11-21T09:26:19;0.90;;;0.90;;
10977;SDS011;5542;48.272;10.794;2023-11-21T09:28:45;1.42;;;1.10;;
10977;SDS011;5542;48.272;10.794;2023-11-21T09:31:12;0.80;;;0.80;;
10977;SDS011;5542;48.272;10.794;2023-11-21T09:33:42;1.20;;;0.90;;
10977;SDS011;5542;48.272;10.794;2023-11-21T09:36:10;2.30;;;1.33;;
10977;SDS011;5542;48.272;10.794;2023-11-21T09:38:38;2.45;;;1.75;;
10977;SDS011;5542;48.272;10.794;2023-11-21T09:41:06;2.33;;;1.27;;
10977;SDS011;5542;48.272;10.794;2023-11-21T09:43:42;1.48;;;1.10;;
10977;SDS011;5542;48.272;10.794;2023-11-21T09:46:12;1.30;;;1.20;;
10977;SDS011;5542;48.272;10.794;2023-11-21T09:48:46;1.70;;;1.00;;
10977;SDS011;5542;48.272;10.794;2023-11-21T09:51:17;1.55;;;1.45;;
10977;SDS011;5542;48.272;10.794;2023-11-21T09:53:46;1.47;;;0.83;;
10977;SDS011;5542;48.272;10.794;2023-11-21T09:56:17;2.00;;;1.27;;
10977;SDS011;5542;48.272;10.794;2023-11-21T09:58:49;1.25;;;1.00;;
10977;SDS011;5542;48.272;10.794;2023-11-21T10:01:17;1.77;;;0.90;;
10977;SDS011;5542;48.272;10.794;2023-11-21T10:03:46;1.13;;;1.07;;
10977;SDS011;5542;48.272;10.794;2023-11-21T10:06:13;1.90;;;1.15;;
10977;SDS011;5542;48.272;10.794;2023-11-21T10:08:41;1.23;;;1.00;;
10977;SDS011;5542;48.272;10.794;2023-11-21T10:11:08;2.65;;;1.15;;
10977;SDS011;5542;48.272;10.794;2023-11-21T10:13:39;1.38;;;1.20;;
10977;SDS011;5542;48.272;10.794;2023-11-21T10:16:07;3.33;;;1.95;;
10977;SDS011;5542;48.272;10.794;2023-11-21T10:18:37;3.50;;;3.20;;
10977;SDS011;5542;48.272;10.794;2023-11-21T10:21:06;2.10;;;1.60;;
10977;SDS011;5542;48.272;10.794;2023-11-21T10:23:34;1.38;;;1.10;;
10977;SDS011;5542;48.272;10.794;2023-11-21T10:26:00;2.03;;;1.38;;
10977;SDS011;5542;48.272;10.794;2023-11-21T10:28:27;1.88;;;0.98;;
10977;SDS011;5542;48.272;10.794;2023-11-21T10:30:54;1.40;;;1.30;;
10977;SDS011;5542;48.272;10.794;2023-11-21T10:33:26;1.25;;;1.15;;
10977;SDS011;5542;48.272;10.794;2023-11-21T10:35:53;2.42;;;1.50;;
10977;SDS011;5542;48.272;10.794;2023-11-21T10:38:21;2.03;;;1.70;;
10977;SDS011;5542;48.272;10.794;2023-11-21T10:40:49;1.60;;;1.33;;
10977;SDS011;5542;48.272;10.794;2023-11-21T10:43:16;1.30;;;1.20;;
10977;SDS011;5542;48.272;10.794;2023-11-21T10:45:43;1.30;;;1.20;;
10977;SDS011;5542;48.272;10.794;2023-11-21T10:48:11;1.42;;;1.30;;
10977;SDS011;5542;48.272;10.794;2023-11-21T10:50:42;1.95;;;1.00;;
10977;SDS011;5542;48.272;10.794;2023-11-21T10:53:09;1.40;;;1.10;;
10977;SDS011;5542;48.272;10.794;2023-11-21T10:55:38;0.67;;;0.67;;
10977;SDS011;5542;48.272;10.794;2023-11-21T10:58:05;0.95;;;0.80;;
10977;SDS011;5542;48.272;10.794;2023-11-21T11:00:32;1.30;;;1.20;;
10977;SDS011;5542;48.272;10.794;2023-11-21T11:02:59;0.93;;;0.90;;
10977;SDS011;5542;48.272;10.794;2023-11-21T11:05:27;1.23;;;1.13;;
10977;SDS011;5542;48.272;10.794;2023-11-21T11:07:56;1.15;;;1.05;;
10977;SDS011;5542;48.272;10.794;2023-11-21T11:10:26;1.33;;;1.23;;
10977;SDS011;5542;48.272;10.794;2023-11-21T11:12:55;1.27;;;1.25;;
10977;SDS011;5542;48.272;10.794;2023-11-21T11:15:23;1.20;;;0.90;;
10977;SDS011;5542;48.272;10.794;2023-11-21T11:17:50;0.93;;;0.90;;
10977;SDS011;5542;48.272;10.794;2023-11-21T11:20:21;1.23;;;1.13;;
10977;SDS011;5542;48.272;10.794;2023-11-21T11:22:50;0.60;;;0.60;;
10977;SDS011;5542;48.272;10.794;2023-11-21T11:25:28;2.30;;;1.45;;
10977;SDS011;5542;48.272;10.794;2023-11-21T11:28:06;0.80;;;0.70;;
10977;SDS011;5542;48.272;10.794;2023-11-21T11:30:39;0.82;;;0.82;;
10977;SDS011;5542;48.272;10.794;2023-11-21T11:33:14;2.28;;;2.00;;
10977;SDS011;5542;48.272;10.794;2023-11-21T11:35:52;11.63;;;8.10;;
10977;SDS011;5542;48.272;10.794;2023-11-21T11:38:24;1.17;;;1.10;;
10977;SDS011;5542;48.272;10.794;2023-11-21T11:40:53;0.70;;;0.70;;
10977;SDS011;5542;48.272;10.794;2023-11-21T11:43:25;0.90;;;0.88;;
10977;SDS011;5542;48.272;10.794;2023-11-21T11:45:55;1.42;;;0.75;;
10977;SDS011;5542;48.272;10.794;2023-11-21T11:48:24;0.88;;;0.80;;
10977;SDS011;5542;48.272;10.794;2023-11-21T11:51:03;1.40;;;1.30;;
10977;SDS011;5542;48.272;10.794;2023-11-21T11:53:35;1.55;;;1.45;;
10977;SDS011;5542;48.272;10.794;2023-11-21T11:59:04;2.38;;;2.17;;
10977;SDS011;5542;48.272;10.794;2023-11-21T12:01:34;2.75;;;2.50;;
10977;SDS011;5542;48.272;10.794;2023-11-21T12:04:22;2.20;;;2.10;;
10977;SDS011;5542;48.272;10.794;2023-11-21T12:06:50;2.20;;;1.70;;
10977;SDS011;5542;48.272;10.794;2023-11-21T12:09:17;1.77;;;1.65;;
10977;SDS011;5542;48.272;10.794;2023-11-21T12:11:46;1.10;;;1.00;;
10977;SDS011;5542;48.272;10.794;2023-11-21T12:14:15;1.17;;;0.95;;
10977;SDS011;5542;48.272;10.794;2023-11-21T12:16:42;0.80;;;0.80;;
10977;SDS011;5542;48.272;10.794;2023-11-21T12:19:09;1.58;;;0.82;;
10977;SDS011;5542;48.272;10.794;2023-11-21T12:21:36;0.60;;;0.60;;
10977;SDS011;5542;48.272;10.794;2023-11-21T12:24:03;1.10;;;1.00;;
10977;SDS011;5542;48.272;10.794;2023-11-21T12:26:33;1.17;;;1.10;;
10977;SDS011;5542;48.272;10.794;2023-11-21T12:29:00;1.40;;;0.90;;
10977;SDS011;5542;48.272;10.794;2023-11-21T12:31:30;0.70;;;0.70;;
10977;SDS011;5542;48.272;10.794;2023-11-21T12:33:56;1.00;;;0.90;;
10977;SDS011;5542;48.272;10.794;2023-11-21T12:36:23;0.70;;;0.70;;
10977;SDS011;5542;48.272;10.794;2023-11-21T12:38:50;0.88;;;0.80;;
10977;SDS011;5542;48.272;10.794;2023-11-21T12:41:17;0.80;;;0.80;;
10977;SDS011;5542;48.272;10.794;2023-11-21T12:43:44;1.48;;;1.38;;
10977;SDS011;5542;48.272;10.794;2023-11-21T12:46:12;1.13;;;1.13;;
10977;SDS011;5542;48.272;10.794;2023-11-21T12:48:42;1.95;;;1.85;;
10977;SDS011;5542;48.272;10.794;2023-11-21T12:51:09;1.80;;;1.70;;
10977;SDS011;5542;48.272;10.794;2023-11-21T12:53:37;0.80;;;0.80;;
10977;SDS011;5542;48.272;10.794;2023-11-21T12:56:06;1.58;;;1.40;;
10977;SDS011;5542;48.272;10.794;2023-11-21T12:58:34;3.05;;;2.75;;
10977;SDS011;5542;48.272;10.794;2023-11-21T13:01:00;2.13;;;1.92;;
10977;SDS011;5542;48.272;10.794;2023-11-21T13:03:29;2.53;;;2.33;;
10977;SDS011;5542;48.272;10.794;2023-11-21T13:05:57;3.88;;;3.53;;
10977;SDS011;5542;48.272;10.794;2023-11-21T13:08:24;1.50;;;1.27;;
10977;SDS011;5542;48.272;10.794;2023-11-21T13:10:53;2.27;;;1.90;;
10977;SDS011;5542;48.272;10.794;2023-11-21T13:13:21;3.45;;;3.22;;
10977;SDS011;5542;48.272;10.794;2023-11-21T13:15:49;3.10;;;2.90;;
10977;SDS011;5542;48.272;10.794;2023-11-21T13:18:17;2.30;;;2.20;;
10977;SDS011;5542;48.272;10.794;2023-11-21T13:20:46;1.88;;;1.77;;
10977;SDS011;5542;48.272;10.794;2023-11-21T13:23:14;1.52;;;1.42;;
10977;SDS011;5542;48.272;10.794;2023-11-21T13:25:42;1.13;;;1.10;;
10977;SDS011;5542;48.272;10.794;2023-11-21T13:28:10;0.80;;;0.80;;
10977;SDS011;5542;48.272;10.794;2023-11-21T13:30:38;0.67;;;0.67;;
10977;SDS011;5542;48.272;10.794;2023-11-21T13:33:05;1.27;;;1.17;;
10977;SDS011;5542;48.272;10.794;2023-11-21T13:35:32;1.90;;;1.00;;
10977;SDS011;5542;48.272;10.794;2023-11-21T13:38:03;1.75;;;1.40;;
10977;SDS011;5542;48.272;10.794;2023-11-21T13:40:33;3.97;;;3.57;;
10977;SDS011;5542;48.272;10.794;2023-11-21T13:43:07;2.88;;;2.58;;
10977;SDS011;5542;48.272;10.794;2023-11-21T13:45:35;1.90;;;1.80;;
10977;SDS011;5542;48.272;10.794;2023-11-21T13:48:01;1.98;;;1.70;;
10977;SDS011;5542;48.272;10.794;2023-11-21T13:50:30;2.53;;;2.33;;
10977;SDS011;5542;48.272;10.794;2023-11-21T13:52:58;2.90;;;2.70;;
10977;SDS011;5542;48.272;10.794;2023-11-21T13:55:29;3.75;;;2.90;;
10977;SDS011;5542;48.272;10.794;2023-11-21T13:57:57;3.70;;;3.40;;
10977;SDS011;5542;48.272;10.794;2023-11-21T14:00:24;3.13;;;2.92;;
10977;SDS011;5542;48.272;10.794;2023-11-21T14:03:09;2.25;;;2.15;;
10977;SDS011;5542;48.272;10.794;2023-11-21T14:05:42;2.30;;;2.20;;
10977;SDS011;5542;48.272;10.794;2023-11-21T14:08:09;2.00;;;1.80;;
10977;SDS011;5542;48.272;10.794;2023-11-21T14:10:38;1.90;;;1.80;;
10977;SDS011;5542;48.272;10.794;2023-11-21T14:13:09;1.60;;;1.50;;
10977;SDS011;5542;48.272;10.794;2023-11-21T14:15:36;1.63;;;1.52;;
10977;SDS011;5542;48.272;10.794;2023-11-21T14:18:06;1.08;;;1.08;;
10977;SDS011;5542;48.272;10.794;2023-11-21T14:20:35;1.10;;;1.00;;
10977;SDS011;5542;48.272;10.794;2023-11-21T14:23:02;0.80;;;0.80;;
10977;SDS011;5542;48.272;10.794;2023-11-21T14:25:29;0.80;;;0.80;;
10977;SDS011;5542;48.272;10.794;2023-11-21T14:27:55;0.73;;;0.73;;
10977;SDS011;5542;48.272;10.794;2023-11-21T14:30:23;1.42;;;1.33;;
10977;SDS011;5542;48.272;10.794;2023-11-21T14:32:51;2.15;;;1.90;;
10977;SDS011;5542;48.272;10.794;2023-11-21T14:35:17;1.50;;;1.40;;
10977;SDS011;5542;48.272;10.794;2023-11-21T14:37:44;1.85;;;1.75;;
10977;SDS011;5542;48.272;10.794;2023-11-21T14:40:11;2.17;;;1.27;;
10977;SDS011;5542;48.272;10.794;2023-11-21T14:42:40;1.00;;;1.00;;
10977;SDS011;5542;48.272;10.794;2023-11-21T14:45:08;1.55;;;1.00;;
10977;SDS011;5542;48.272;10.794;2023-11-21T14:47:38;0.88;;;0.77;;
10977;SDS011;5542;48.272;10.794;2023-11-21T14:50:09;0.80;;;0.80;;
10977;SDS011;5542;48.272;10.794;2023-11-21T14:53:03;1.20;;;1.10;;
10977;SDS011;5542;48.272;10.794;2023-11-21T14:55:31;0.70;;;0.70;;